Time,TemperatureF,DewpointF,PressureIn,WindDirection,WindDirectionDegrees,WindSpeedMPH,WindSpeedGustMPH,Humidity,HourlyPrecipIn,Conditions,Clouds,dailyrainin,SoftwareType,DateUTC
2013-11-15 00:03:00,26.8,23.0,30.05,North,355,0.0,0.0,86,0.00,,,0.17,weatherlink.com 1.10,2013-11-15 05:03:00,
2013-11-15 00:18:00,26.5,23.0,30.05,North,355,0.0,0.0,86,0.00,,,0.00,weatherlink.com 1.10,2013-11-15 05:18:00,
2013-11-15 00:33:00,26.2,23.0,30.06,North,355,0.0,0.0,86,0.00,,,0.00,weatherlink.com 1.10,2013-11-15 05:33:00,
2013-11-15 00:48:00,25.9,23.0,30.06,North,355,0.0,0.0,87,0.00,,,0.00,weatherlink.com 1.10,2013-11-15 05:48:00,
2013-11-15 01:03:00,25.5,22.0,30.06,North,355,0.0,0.0,87,0.00,,,0.00,weatherlink.com 1.10,2013-11-15 06:03:00,
2013-11-15 01:19:00,25.3,22.0,30.07,North,355,0.0,0.0,87,0.00,,,0.00,weatherlink.com 1.10,2013-11-15 06:19:00,
2013-11-15 01:34:00,25.1,22.0,30.07,North,355,0.0,0.0,87,0.00,,,0.00,weatherlink.com 1.10,2013-11-15 06:34:00,
2013-11-15 01:49:00,24.9,22.0,30.08,North,355,0.0,0.0,87,0.00,,,0.00,weatherlink.com 1.10,2013-11-15 06:49:00,
2013-11-15 02:04:00,24.7,21.0,30.07,North,355,0.0,0.0,87,0.00,,,0.00,weatherlink.com 1.10,2013-11-15 07:04:00,
2013-11-15 02:19:00,24.3,21.0,30.07,North,355,0.0,0.0,87,0.00,,,0.00,weatherlink.com 1.10,2013-11-15 07:19:00,
2013-11-15 02:34:00,24.2,21.0,30.07,North,355,0.0,0.0,88,0.00,,,0.00,weatherlink.com 1.10,2013-11-15 07:34:00,
2013-11-15 02:49:00,24.3,21.0,30.07,North,355,0.0,0.0,88,0.00,,,0.00,weatherlink.com 1.10,2013-11-15 07:49:00,
2013-11-15 03:04:00,24.0,21.0,30.07,North,355,0.0,0.0,88,0.00,,,0.00,weatherlink.com 1.10,2013-11-15 08:04:00,
2013-11-15 03:19:00,23.6,21.0,30.08,North,355,0.0,0.0,88,0.00,,,0.00,weatherlink.com 1.10,2013-11-15 08:19:00,
2013-11-15 03:34:00,23.5,21.0,30.08,North,355,0.0,0.0,88,0.00,,,0.00,weatherlink.com 1.10,2013-11-15 08:34:00,
2013-11-15 03:49:00,23.3,20.0,30.08,North,355,0.0,0.0,88,0.00,,,0.00,weatherlink.com 1.10,2013-11-15 08:49:00,
2013-11-15 04:04:00,23.4,20.0,30.08,North,355,0.0,0.0,88,0.00,,,0.00,weatherlink.com 1.10,2013-11-15 09:04:00,
2013-11-15 04:19:00,23.5,21.0,30.08,North,355,0.0,0.0,88,0.00,,,0.00,weatherlink.com 1.10,2013-11-15 09:19:00,
2013-11-15 04:34:00,23.4,20.0,30.08,North,355,0.0,0.0,88,0.00,,,0.00,weatherlink.com 1.10,2013-11-15 09:34:00,
2013-11-15 04:49:00,23.3,20.0,30.07,North,355,0.0,0.0,88,0.00,,,0.00,weatherlink.com 1.10,2013-11-15 09:49:00,
2013-11-15 05:04:00,23.0,20.0,30.08,North,355,0.0,0.0,88,0.00,,,0.00,weatherlink.com 1.10,2013-11-15 10:04:00,
2013-11-15 05:19:00,23.0,20.0,30.08,North,355,0.0,0.0,88,0.00,,,0.00,weatherlink.com 1.10,2013-11-15 10:19:00,
2013-11-15 05:34:00,23.2,21.0,30.08,North,355,0.0,0.0,89,0.00,,,0.00,weatherlink.com 1.10,2013-11-15 10:34:00,
2013-11-15 05:49:00,23.1,20.0,30.09,North,355,0.0,0.0,88,0.00,,,0.00,weatherlink.com 1.10,2013-11-15 10:49:00,
2013-11-15 06:04:00,23.0,20.0,30.10,North,355,0.0,0.0,88,0.00,,,0.00,weatherlink.com 1.10,2013-11-15 11:04:00,
2013-11-15 06:19:00,23.0,20.0,30.10,North,355,0.0,0.0,88,0.00,,,0.00,weatherlink.com 1.10,2013-11-15 11:19:00,
2013-11-15 06:34:00,23.1,20.0,30.10,North,355,0.0,0.0,88,0.00,,,0.00,weatherlink.com 1.10,2013-11-15 11:34:00,
2013-11-15 06:49:00,23.2,20.0,30.10,North,355,0.0,0.0,88,0.00,,,0.00,weatherlink.com 1.10,2013-11-15 11:49:00,
2013-11-15 07:04:00,23.4,20.0,30.11,North,355,0.0,0.0,88,0.00,,,0.00,weatherlink.com 1.10,2013-11-15 12:04:00,
2013-11-15 07:19:00,23.7,21.0,30.11,North,355,0.0,0.0,88,0.00,,,0.00,weatherlink.com 1.10,2013-11-15 12:19:00,
2013-11-15 07:34:00,24.4,21.0,30.11,North,355,0.0,0.0,88,0.00,,,0.00,weatherlink.com 1.10,2013-11-15 12:34:00,
2013-11-15 07:49:00,25.3,23.0,30.12,North,355,0.0,0.0,89,0.00,,,0.00,weatherlink.com 1.10,2013-11-15 12:49:00,
2013-11-15 08:04:00,26.0,23.0,30.12,North,355,0.0,0.0,88,0.00,,,0.00,weatherlink.com 1.10,2013-11-15 13:04:00,
2013-11-15 08:19:00,26.6,24.0,30.12,North,355,0.0,0.0,88,0.00,,,0.00,weatherlink.com 1.10,2013-11-15 13:19:00,
2013-11-15 08:34:00,27.2,24.0,30.12,North,355,0.0,0.0,88,0.00,,,0.00,weatherlink.com 1.10,2013-11-15 13:34:00,
2013-11-15 08:49:00,27.9,25.0,30.12,North,355,0.0,0.0,88,0.00,,,0.00,weatherlink.com 1.10,2013-11-15 13:49:00,
2013-11-15 09:04:00,28.9,26.0,30.12,North,355,0.0,0.0,88,0.00,,,0.00,weatherlink.com 1.10,2013-11-15 14:04:00,
2013-11-15 09:19:00,29.8,26.0,30.12,North,355,0.0,0.0,87,0.00,,,0.00,weatherlink.com 1.10,2013-11-15 14:19:00,
2013-11-15 09:34:00,31.1,27.0,30.11,North,355,0.0,1.0,85,0.00,,,0.00,weatherlink.com 1.10,2013-11-15 14:34:00,
2013-11-15 09:49:00,32.4,28.0,30.11,North,355,0.0,0.0,84,0.00,,,0.00,weatherlink.com 1.10,2013-11-15 14:49:00,
2013-11-15 10:04:00,33.8,29.0,30.11,North,355,0.0,0.0,83,0.00,,,0.00,weatherlink.com 1.10,2013-11-15 15:04:00,
2013-11-15 10:20:00,35.5,30.0,30.11,North,355,0.0,0.0,79,0.00,,,0.00,weatherlink.com 1.10,2013-11-15 15:20:00,
2013-11-15 10:35:00,36.5,30.0,30.11,North,355,0.0,0.0,77,0.00,,,0.00,weatherlink.com 1.10,2013-11-15 15:35:00,
2013-11-15 10:50:00,37.6,30.0,30.11,North,355,0.0,0.0,74,0.00,,,0.00,weatherlink.com 1.10,2013-11-15 15:50:00,
2013-11-15 11:05:00,38.4,31.0,30.10,North,351,0.0,0.0,74,0.00,,,0.00,weatherlink.com 1.10,2013-11-15 16:05:00,
2013-11-15 11:20:00,39.7,31.0,30.10,North,351,0.0,0.0,72,0.01,,,0.01,weatherlink.com 1.10,2013-11-15 16:20:00,
2013-11-15 11:35:00,40.8,31.0,30.09,North,351,0.0,0.0,67,0.01,,,0.01,weatherlink.com 1.10,2013-11-15 16:35:00,
2013-11-15 11:50:00,41.7,32.0,30.09,North,360,0.0,0.0,69,0.02,,,0.02,weatherlink.com 1.10,2013-11-15 16:50:00,
2013-11-15 12:05:00,42.3,32.0,30.09,North,360,0.0,0.0,68,0.02,,,0.02,weatherlink.com 1.10,2013-11-15 17:05:00,
2013-11-15 12:20:00,42.7,32.0,30.08,North,360,0.0,0.0,67,0.01,,,0.02,weatherlink.com 1.10,2013-11-15 17:20:00,
2013-11-15 12:35:00,43.4,33.0,30.08,North,360,0.0,0.0,67,0.02,,,0.03,weatherlink.com 1.10,2013-11-15 17:35:00,
2013-11-15 12:50:00,44.1,33.0,30.08,North,360,0.0,0.0,64,0.01,,,0.03,weatherlink.com 1.10,2013-11-15 17:50:00,
2013-11-15 13:05:00,44.8,32.0,30.07,North,360,0.0,0.0,62,0.02,,,0.04,weatherlink.com 1.10,2013-11-15 18:05:00,
2013-11-15 13:20:00,45.4,31.0,30.07,North,360,0.0,0.0,57,0.02,,,0.04,weatherlink.com 1.10,2013-11-15 18:20:00,
2013-11-15 13:35:00,46.9,32.0,30.06,North,360,0.0,3.0,57,0.03,,,0.06,weatherlink.com 1.10,2013-11-15 18:35:00,
2013-11-15 13:50:00,48.0,30.0,30.07,North,360,0.0,0.0,51,0.03,,,0.06,weatherlink.com 1.10,2013-11-15 18:50:00,
2013-11-15 14:05:00,48.8,31.0,30.06,North,360,0.0,1.0,51,0.03,,,0.07,weatherlink.com 1.10,2013-11-15 19:05:00,
2013-11-15 14:20:00,48.6,30.0,30.07,North,360,0.0,2.0,49,0.03,,,0.07,weatherlink.com 1.10,2013-11-15 19:20:00,
2013-11-15 14:35:00,48.5,31.0,30.06,North,360,0.0,0.0,51,0.02,,,0.08,weatherlink.com 1.10,2013-11-15 19:35:00,
2013-11-15 14:50:00,48.2,30.0,30.07,North,360,0.0,0.0,49,0.02,,,0.08,weatherlink.com 1.10,2013-11-15 19:50:00,
2013-11-15 15:05:00,47.4,31.0,30.06,North,360,0.0,0.0,53,0.01,,,0.08,weatherlink.com 1.10,2013-11-15 20:05:00,
2013-11-15 15:20:00,46.4,31.0,30.07,North,360,0.0,0.0,55,0.02,,,0.09,weatherlink.com 1.10,2013-11-15 20:20:00,
2013-11-15 15:35:00,45.0,31.0,30.07,North,360,0.0,0.0,58,0.01,,,0.09,weatherlink.com 1.10,2013-11-15 20:35:00,
2013-11-15 15:51:00,42.6,30.0,30.08,North,360,0.0,0.0,61,0.02,,,0.10,weatherlink.com 1.10,2013-11-15 20:51:00,
2013-11-15 16:05:00,41.1,29.0,30.08,North,360,0.0,0.0,63,0.02,,,0.10,weatherlink.com 1.10,2013-11-15 21:05:00,
2013-11-15 16:20:00,39.6,29.0,30.09,North,360,0.0,0.0,67,0.01,,,0.10,weatherlink.com 1.10,2013-11-15 21:20:00,
2013-11-15 16:35:00,37.7,29.0,30.09,North,360,0.0,0.0,70,0.01,,,0.10,weatherlink.com 1.10,2013-11-15 21:35:00,
2013-11-15 16:50:00,36.2,28.0,30.09,North,360,0.0,0.0,73,0.01,,,0.11,weatherlink.com 1.10,2013-11-15 21:50:00,
2013-11-15 17:05:00,35.3,28.0,30.09,North,360,0.0,0.0,74,0.01,,,0.11,weatherlink.com 1.10,2013-11-15 22:05:00,
2013-11-15 17:20:00,34.4,28.0,30.10,North,360,0.0,0.0,76,0.01,,,0.11,weatherlink.com 1.10,2013-11-15 22:20:00,
2013-11-15 17:35:00,33.6,27.0,30.10,North,360,0.0,0.0,77,0.01,,,0.11,weatherlink.com 1.10,2013-11-15 22:35:00,
2013-11-15 17:50:00,32.9,27.0,30.10,North,360,0.0,0.0,78,0.01,,,0.12,weatherlink.com 1.10,2013-11-15 22:50:00,
2013-11-15 18:05:00,33.3,27.0,30.11,North,360,0.0,0.0,79,0.01,,,0.12,weatherlink.com 1.10,2013-11-15 23:05:00,
2013-11-15 18:21:00,33.3,27.0,30.11,North,360,0.0,0.0,79,0.01,,,0.12,weatherlink.com 1.10,2013-11-15 23:21:00,
2013-11-15 18:36:00,32.6,27.0,30.11,North,360,0.0,0.0,79,0.01,,,0.12,weatherlink.com 1.10,2013-11-15 23:36:00,
2013-11-15 18:51:00,31.6,26.0,30.11,North,360,0.0,0.0,80,0.00,,,0.12,weatherlink.com 1.10,2013-11-15 23:51:00,
2013-11-15 19:06:00,31.2,26.0,30.11,North,360,0.0,0.0,81,0.00,,,0.12,weatherlink.com 1.10,2013-11-16 00:06:00,
2013-11-15 19:21:00,31.0,26.0,30.12,North,360,0.0,1.0,83,0.00,,,0.12,weatherlink.com 1.10,2013-11-16 00:21:00,
2013-11-15 19:36:00,30.6,26.0,30.12,North,360,0.0,0.0,83,0.00,,,0.12,weatherlink.com 1.10,2013-11-16 00:36:00,
2013-11-15 19:51:00,29.8,25.0,30.13,North,360,0.0,0.0,83,0.00,,,0.12,weatherlink.com 1.10,2013-11-16 00:51:00,
2013-11-15 20:06:00,29.4,25.0,30.13,North,360,0.0,0.0,84,0.00,,,0.12,weatherlink.com 1.10,2013-11-16 01:06:00,
2013-11-15 20:21:00,29.0,25.0,30.14,North,360,0.0,0.0,84,0.00,,,0.12,weatherlink.com 1.10,2013-11-16 01:21:00,
2013-11-15 20:36:00,28.5,25.0,30.14,North,360,0.0,0.0,85,0.00,,,0.12,weatherlink.com 1.10,2013-11-16 01:36:00,
2013-11-15 20:51:00,28.3,24.0,30.14,North,360,0.0,0.0,85,0.00,,,0.12,weatherlink.com 1.10,2013-11-16 01:51:00,
2013-11-15 21:06:00,28.2,25.0,30.14,North,360,0.0,0.0,86,0.00,,,0.12,weatherlink.com 1.10,2013-11-16 02:06:00,
2013-11-15 21:21:00,28.4,25.0,30.15,North,360,0.0,0.0,86,0.00,,,0.12,weatherlink.com 1.10,2013-11-16 02:21:00,
2013-11-15 21:36:00,28.3,25.0,30.14,North,360,0.0,0.0,86,0.00,,,0.12,weatherlink.com 1.10,2013-11-16 02:36:00,
2013-11-15 21:51:00,28.4,25.0,30.15,North,360,0.0,0.0,86,0.00,,,0.12,weatherlink.com 1.10,2013-11-16 02:51:00,
2013-11-15 22:06:00,28.5,25.0,30.14,North,360,0.0,0.0,86,0.00,,,0.12,weatherlink.com 1.10,2013-11-16 03:06:00,
2013-11-15 22:21:00,29.0,25.0,30.15,North,360,0.0,0.0,84,0.00,,,0.12,weatherlink.com 1.10,2013-11-16 03:21:00,
2013-11-15 22:36:00,29.3,25.0,30.15,NNE,22,2.0,3.0,83,0.00,,,0.12,weatherlink.com 1.10,2013-11-16 03:36:00,
2013-11-15 22:51:00,29.2,24.0,30.16,NNE,22,0.0,2.0,82,0.00,,,0.12,weatherlink.com 1.10,2013-11-16 03:51:00,
2013-11-15 23:06:00,28.9,24.0,30.16,NNE,22,0.0,0.0,83,0.00,,,0.12,weatherlink.com 1.10,2013-11-16 04:06:00,
2013-11-15 23:21:00,28.5,24.0,30.16,NNE,22,0.0,0.0,83,0.00,,,0.12,weatherlink.com 1.10,2013-11-16 04:21:00,
2013-11-15 23:36:00,27.8,24.0,30.17,NNE,22,0.0,0.0,84,0.00,,,0.12,weatherlink.com 1.10,2013-11-16 04:36:00,
2013-11-15 23:51:00,27.7,24.0,30.17,NNE,22,0.0,0.0,85,0.00,,,0.12,weatherlink.com 1.10,2013-11-16 04:51:00,